sensor_id;sensor_type;location;lat;lon;timestamp;pressure;altitude;pressure_sealevel;temperature;humidity
25232;BME280;13176;51.140;6.290;2022-08-11T00:00:59;101385.50;;;26.92;35.35
25232;BME280;13176;51.140;6.290;2022-08-11T00:03:31;101411.66;;;27.01;35.42
25232;BME280;13176;51.140;6.290;2022-08-11T00:06:09;101403.31;;;26.93;35.23
25232;BME280;13176;51.140;6.290;2022-08-11T00:08:37;101372.00;;;26.69;35.99
25232;BME280;13176;51.140;6.290;2022-08-11T00:11:07;101367.69;;;26.67;35.28
25232;BME280;13176;51.140;6.290;2022-08-11T00:13:37;101412.31;;;26.92;35.28
25232;BME280;13176;51.140;6.290;2022-08-11T00:16:18;101392.34;;;26.71;35.83
25232;BME280;13176;51.140;6.290;2022-08-11T00:18:51;101448.97;;;27.04;35.92
25232;BME280;13176;51.140;6.290;2022-08-11T00:21:22;101464.88;;;27.07;35.69
25232;BME280;13176;51.140;6.290;2022-08-11T00:24:09;101365.38;;;26.36;35.95
25232;BME280;13176;51.140;6.290;2022-08-11T00:26:36;101432.94;;;26.66;36.45
25232;BME280;13176;51.140;6.290;2022-08-11T00:29:10;101460.19;;;26.72;36.43
25232;BME280;13176;51.140;6.290;2022-08-11T00:31:37;101349.53;;;25.94;37.03
25232;BME280;13176;51.140;6.290;2022-08-11T00:34:10;101465.00;;;26.55;37.22
25232;BME280;13176;51.140;6.290;2022-08-11T00:36:46;101394.72;;;25.98;37.17
25232;BME280;13176;51.140;6.290;2022-08-11T00:39:13;101459.09;;;26.36;37.57
25232;BME280;13176;51.140;6.290;2022-08-11T00:42:02;101382.03;;;25.88;37.48
25232;BME280;13176;51.140;6.290;2022-08-11T00:47:23;101466.38;;;26.34;37.99
25232;BME280;13176;51.140;6.290;2022-08-11T00:53:02;101396.38;;;25.87;37.83
25232;BME280;13176;51.140;6.290;2022-08-11T01:12:34;101458.00;;;25.85;39.41
25232;BME280;13176;51.140;6.290;2022-08-11T01:18:30;101461.44;;;25.73;39.60
25232;BME280;13176;51.140;6.290;2022-08-11T01:21:38;101463.66;;;25.67;39.64
25232;BME280;13176;51.140;6.290;2022-08-11T01:33:41;101430.81;;;25.23;40.78
25232;BME280;13176;51.140;6.290;2022-08-11T01:45:29;101462.91;;;25.23;41.18
25232;BME280;13176;51.140;6.290;2022-08-11T01:50:34;101460.81;;;25.28;41.08
25232;BME280;13176;51.140;6.290;2022-08-11T01:59:31;101469.50;;;25.18;41.08
25232;BME280;13176;51.140;6.290;2022-08-11T02:11:04;101466.94;;;25.01;41.48
25232;BME280;13176;51.140;6.290;2022-08-11T02:21:57;101424.81;;;24.47;41.69
25232;BME280;13176;51.140;6.290;2022-08-11T02:25:28;101455.72;;;24.66;42.28
25232;BME280;13176;51.140;6.290;2022-08-11T02:28:03;101372.16;;;24.06;42.55
25232;BME280;13176;51.140;6.290;2022-08-11T02:30:38;101415.31;;;24.27;42.88
25232;BME280;13176;51.140;6.290;2022-08-11T02:33:20;101390.44;;;23.98;42.77
25232;BME280;13176;51.140;6.290;2022-08-11T02:38:47;101397.84;;;23.93;42.75
25232;BME280;13176;51.140;6.290;2022-08-11T02:41:55;101450.13;;;24.11;43.51
25232;BME280;13176;51.140;6.290;2022-08-11T02:47:41;101436.91;;;23.94;43.86
25232;BME280;13176;51.140;6.290;2022-08-11T02:50:30;101402.13;;;23.80;43.82
25232;BME280;13176;51.140;6.290;2022-08-11T02:59:06;101454.63;;;23.95;43.71
25232;BME280;13176;51.140;6.290;2022-08-11T03:02:00;101341.41;;;23.23;43.75
25232;BME280;13176;51.140;6.290;2022-08-11T03:04:54;101359.13;;;23.24;44.04
25232;BME280;13176;51.140;6.290;2022-08-11T03:13:05;101459.22;;;23.76;43.89
25232;BME280;13176;51.140;6.290;2022-08-11T03:16:24;101457.03;;;23.84;44.02
25232;BME280;13176;51.140;6.290;2022-08-11T03:19:17;101348.53;;;23.38;43.41
25232;BME280;13176;51.140;6.290;2022-08-11T03:22:04;101459.25;;;24.07;42.97
25232;BME280;13176;51.140;6.290;2022-08-11T03:24:55;101461.69;;;23.96;43.41
25232;BME280;13176;51.140;6.290;2022-08-11T03:27:47;101462.19;;;23.87;43.50
25232;BME280;13176;51.140;6.290;2022-08-11T03:30:18;101353.50;;;23.13;44.45
25232;BME280;13176;51.140;6.290;2022-08-11T03:36:22;101459.66;;;23.36;45.02
25232;BME280;13176;51.140;6.290;2022-08-11T03:39:06;101464.03;;;23.21;45.26
25232;BME280;13176;51.140;6.290;2022-08-11T03:41:52;101469.66;;;23.15;46.01
25232;BME280;13176;51.140;6.290;2022-08-11T03:56:27;101378.94;;;22.86;45.43
25232;BME280;13176;51.140;6.290;2022-08-11T03:59:14;101456.38;;;23.31;45.55
25232;BME280;13176;51.140;6.290;2022-08-11T04:04:57;101448.69;;;23.42;45.50
25232;BME280;13176;51.140;6.290;2022-08-11T04:07:44;101448.84;;;23.39;45.48
25232;BME280;13176;51.140;6.290;2022-08-11T04:10:27;101452.13;;;23.44;45.37
25232;BME280;13176;51.140;6.290;2022-08-11T04:13:28;101444.56;;;23.36;45.85
25232;BME280;13176;51.140;6.290;2022-08-11T04:19:38;101452.63;;;23.35;45.78
25232;BME280;13176;51.140;6.290;2022-08-11T04:25:42;101417.81;;;23.06;46.05
25232;BME280;13176;51.140;6.290;2022-08-11T04:28:51;101451.03;;;23.15;46.73
25232;BME280;13176;51.140;6.290;2022-08-11T04:31:34;101378.78;;;22.72;46.54
25232;BME280;13176;51.140;6.290;2022-08-11T04:34:33;101454.47;;;23.01;46.76
25232;BME280;13176;51.140;6.290;2022-08-11T04:40:05;101447.50;;;22.98;47.42
25232;BME280;13176;51.140;6.290;2022-08-11T04:52:39;101456.88;;;23.05;47.77
25232;BME280;13176;51.140;6.290;2022-08-11T05:08:15;101463.81;;;22.92;48.76
25232;BME280;13176;51.140;6.290;2022-08-11T05:14:21;101447.53;;;22.81;48.62
25232;BME280;13176;51.140;6.290;2022-08-11T05:20:15;101431.41;;;22.67;48.45
25232;BME280;13176;51.140;6.290;2022-08-11T05:23:04;101449.09;;;22.68;48.70
25232;BME280;13176;51.140;6.290;2022-08-11T05:25:53;101450.59;;;22.74;48.62
25232;BME280;13176;51.140;6.290;2022-08-11T05:29:00;101473.69;;;22.90;48.58
25232;BME280;13176;51.140;6.290;2022-08-11T05:32:05;101436.72;;;22.67;49.00
25232;BME280;13176;51.140;6.290;2022-08-11T05:34:52;101446.75;;;22.79;49.03
25232;BME280;13176;51.140;6.290;2022-08-11T05:40:08;101465.28;;;22.98;49.09
25232;BME280;13176;51.140;6.290;2022-08-11T05:42:57;101437.56;;;22.85;48.72
25232;BME280;13176;51.140;6.290;2022-08-11T05:45:43;101488.72;;;23.08;48.86
25232;BME280;13176;51.140;6.290;2022-08-11T05:48:35;101463.81;;;22.92;49.16
25232;BME280;13176;51.140;6.290;2022-08-11T05:51:21;101451.88;;;22.99;49.27
25232;BME280;13176;51.140;6.290;2022-08-11T05:54:27;101449.69;;;23.07;49.15
25232;BME280;13176;51.140;6.290;2022-08-11T05:57:22;101475.50;;;23.39;49.11
25232;BME280;13176;51.140;6.290;2022-08-11T06:00:13;101449.41;;;23.45;49.03
25232;BME280;13176;51.140;6.290;2022-08-11T06:02:41;101482.13;;;23.80;48.73
25232;BME280;13176;51.140;6.290;2022-08-11T06:05:09;101466.25;;;23.77;48.27
25232;BME280;13176;51.140;6.290;2022-08-11T06:07:37;101448.94;;;24.01;46.19
25232;BME280;13176;51.140;6.290;2022-08-11T06:10:36;101484.84;;;24.55;43.66
25232;BME280;13176;51.140;6.290;2022-08-11T06:13:06;101400.44;;;24.24;43.19
25232;BME280;13176;51.140;6.290;2022-08-11T06:15:46;101439.34;;;24.72;42.32
25232;BME280;13176;51.140;6.290;2022-08-11T06:18:13;101441.25;;;24.84;42.41
25232;BME280;13176;51.140;6.290;2022-08-11T06:20:45;101462.56;;;25.14;41.37
25232;BME280;13176;51.140;6.290;2022-08-11T06:23:13;101477.72;;;25.29;40.72
25232;BME280;13176;51.140;6.290;2022-08-11T06:25:43;101383.25;;;24.86;40.48
25232;BME280;13176;51.140;6.290;2022-08-11T06:28:11;101443.34;;;25.23;40.50
25232;BME280;13176;51.140;6.290;2022-08-11T06:30:46;101475.53;;;25.49;39.91
25232;BME280;13176;51.140;6.290;2022-08-11T06:33:18;101444.38;;;25.34;40.35
25232;BME280;13176;51.140;6.290;2022-08-11T06:36:01;101451.53;;;25.48;40.14
25232;BME280;13176;51.140;6.290;2022-08-11T06:41:50;101441.31;;;25.54;39.16
25232;BME280;13176;51.140;6.290;2022-08-11T06:44:26;101387.69;;;25.29;39.11
25232;BME280;13176;51.140;6.290;2022-08-11T06:46:55;101452.75;;;25.70;38.61
25232;BME280;13176;51.140;6.290;2022-08-11T06:49:36;101448.59;;;25.80;38.73
25232;BME280;13176;51.140;6.290;2022-08-11T06:52:29;101468.78;;;25.98;38.68
25232;BME280;13176;51.140;6.290;2022-08-11T06:55:21;101466.41;;;25.93;38.87
25232;BME280;13176;51.140;6.290;2022-08-11T06:58:27;101480.63;;;26.08;37.92
25232;BME280;13176;51.140;6.290;2022-08-11T07:01:18;101469.91;;;26.08;37.74
25232;BME280;13176;51.140;6.290;2022-08-11T07:03:56;101473.50;;;26.21;36.81
25232;BME280;13176;51.140;6.290;2022-08-11T07:06:40;101467.59;;;26.16;37.34
25232;BME280;13176;51.140;6.290;2022-08-11T07:10:09;101484.34;;;26.32;36.84
25232;BME280;13176;51.140;6.290;2022-08-11T07:12:40;101482.78;;;26.42;37.11
25232;BME280;13176;51.140;6.290;2022-08-11T07:15:31;101471.31;;;26.40;36.99
25232;BME280;13176;51.140;6.290;2022-08-11T07:18:31;101453.53;;;26.39;36.42
25232;BME280;13176;51.140;6.290;2022-08-11T07:21:26;101386.38;;;26.03;36.28
25232;BME280;13176;51.140;6.290;2022-08-11T07:24:32;101444.53;;;26.40;36.24
25232;BME280;13176;51.140;6.290;2022-08-11T07:27:39;101476.56;;;26.67;35.68
25232;BME280;13176;51.140;6.290;2022-08-11T07:30:26;101476.69;;;26.66;34.60
25232;BME280;13176;51.140;6.290;2022-08-11T07:33:01;101473.47;;;26.73;34.43
25232;BME280;13176;51.140;6.290;2022-08-11T07:35:42;101451.50;;;26.68;34.15
25232;BME280;13176;51.140;6.290;2022-08-11T07:38:17;101382.38;;;26.22;34.23
25232;BME280;13176;51.140;6.290;2022-08-11T07:40:50;101458.59;;;26.82;33.63
25232;BME280;13176;51.140;6.290;2022-08-11T07:43:17;101443.19;;;26.85;34.31
25232;BME280;13176;51.140;6.290;2022-08-11T07:45:45;101484.94;;;27.14;33.94
25232;BME280;13176;51.140;6.290;2022-08-11T07:48:32;101445.53;;;26.90;34.22
25232;BME280;13176;51.140;6.290;2022-08-11T07:51:19;101487.94;;;27.22;33.42
25232;BME280;13176;51.140;6.290;2022-08-11T07:54:05;101473.16;;;27.29;33.50
25232;BME280;13176;51.140;6.290;2022-08-11T07:56:42;101429.59;;;27.13;33.85
25232;BME280;13176;51.140;6.290;2022-08-11T07:59:28;101436.03;;;27.23;34.10
25232;BME280;13176;51.140;6.290;2022-08-11T08:02:30;101468.75;;;27.41;33.67
25232;BME280;13176;51.140;6.290;2022-08-11T08:05:16;101474.09;;;27.53;33.42
25232;BME280;13176;51.140;6.290;2022-08-11T08:08:03;101454.56;;;27.51;33.16
25232;BME280;13176;51.140;6.290;2022-08-11T08:10:49;101454.13;;;27.57;32.75
25232;BME280;13176;51.140;6.290;2022-08-11T08:13:36;101449.84;;;27.67;33.27
25232;BME280;13176;51.140;6.290;2022-08-11T08:16:21;101446.69;;;27.73;33.58
25232;BME280;13176;51.140;6.290;2022-08-11T08:19:06;101480.91;;;27.94;32.42
25232;BME280;13176;51.140;6.290;2022-08-11T08:21:37;101454.91;;;27.95;32.88
25232;BME280;13176;51.140;6.290;2022-08-11T08:24:05;101404.50;;;27.75;32.51
25232;BME280;13176;51.140;6.290;2022-08-11T08:26:33;101480.47;;;28.24;32.64
25232;BME280;13176;51.140;6.290;2022-08-11T08:29:19;101481.56;;;28.34;32.22
25232;BME280;13176;51.140;6.290;2022-08-11T08:32:06;101466.63;;;28.30;32.39
25232;BME280;13176;51.140;6.290;2022-08-11T08:34:34;101456.91;;;28.40;32.09
25232;BME280;13176;51.140;6.290;2022-08-11T08:37:02;101387.91;;;28.17;32.01
25232;BME280;13176;51.140;6.290;2022-08-11T08:39:51;101477.06;;;28.80;32.43
25232;BME280;13176;51.140;6.290;2022-08-11T08:42:24;101478.34;;;28.87;32.08
25232;BME280;13176;51.140;6.290;2022-08-11T08:45:04;101457.59;;;28.89;31.74
25232;BME280;13176;51.140;6.290;2022-08-11T08:47:36;101470.84;;;29.13;31.37
25232;BME280;13176;51.140;6.290;2022-08-11T08:50:13;101377.38;;;28.72;31.32
25232;BME280;13176;51.140;6.290;2022-08-11T08:52:48;101470.44;;;29.41;30.78
25232;BME280;13176;51.140;6.290;2022-08-11T08:55:17;101473.97;;;29.53;30.14
25232;BME280;13176;51.140;6.290;2022-08-11T08:57:45;101376.72;;;29.03;30.13
25232;BME280;13176;51.140;6.290;2022-08-11T09:00:14;101381.59;;;29.09;29.89
25232;BME280;13176;51.140;6.290;2022-08-11T09:02:48;101446.09;;;29.65;29.75
25232;BME280;13176;51.140;6.290;2022-08-11T09:05:18;101478.94;;;29.90;29.57
25232;BME280;13176;51.140;6.290;2022-08-11T09:07:49;101425.72;;;29.72;29.25
25232;BME280;13176;51.140;6.290;2022-08-11T09:10:18;101480.44;;;30.16;29.35
25232;BME280;13176;51.140;6.290;2022-08-11T09:12:46;101470.50;;;30.17;29.17
25232;BME280;13176;51.140;6.290;2022-08-11T09:15:13;101455.19;;;30.17;29.36
25232;BME280;13176;51.140;6.290;2022-08-11T09:17:53;101459.28;;;30.32;29.13
25232;BME280;13176;51.140;6.290;2022-08-11T09:20:32;101430.88;;;30.28;29.27
25232;BME280;13176;51.140;6.290;2022-08-11T09:23:03;101473.66;;;30.64;28.44
25232;BME280;13176;51.140;6.290;2022-08-11T09:26:09;101452.69;;;30.67;28.03
25232;BME280;13176;51.140;6.290;2022-08-11T09:28:57;101473.03;;;30.92;27.13
25232;BME280;13176;51.140;6.290;2022-08-11T09:31:24;101460.97;;;30.96;26.81
25232;BME280;13176;51.140;6.290;2022-08-11T09:33:53;101444.25;;;31.02;27.07
25232;BME280;13176;51.140;6.290;2022-08-11T09:36:20;101463.50;;;31.29;27.42
25232;BME280;13176;51.140;6.290;2022-08-11T09:39:06;101442.44;;;31.23;26.77
25232;BME280;13176;51.140;6.290;2022-08-11T09:41:53;101449.88;;;31.40;26.26
25232;BME280;13176;51.140;6.290;2022-08-11T09:44:28;101461.06;;;31.55;25.72
25232;BME280;13176;51.140;6.290;2022-08-11T09:47:25;101445.44;;;31.59;25.97
25232;BME280;13176;51.140;6.290;2022-08-11T09:50:00;101441.53;;;31.72;25.31
25232;BME280;13176;51.140;6.290;2022-08-11T09:52:30;101460.50;;;31.91;25.18
25232;BME280;13176;51.140;6.290;2022-08-11T09:54:57;101443.84;;;31.86;25.39
25232;BME280;13176;51.140;6.290;2022-08-11T09:57:25;101382.03;;;31.53;25.13
25232;BME280;13176;51.140;6.290;2022-08-11T10:00:11;101449.28;;;32.05;25.21
25232;BME280;13176;51.140;6.290;2022-08-11T10:02:45;101411.97;;;31.80;24.18
25232;BME280;13176;51.140;6.290;2022-08-11T10:05:17;101364.63;;;31.67;24.93
25232;BME280;13176;51.140;6.290;2022-08-11T10:08:22;101436.84;;;32.23;24.81
25232;BME280;13176;51.140;6.290;2022-08-11T10:10:55;101423.75;;;32.28;24.25
25232;BME280;13176;51.140;6.290;2022-08-11T10:13:29;101380.59;;;32.08;24.39
25232;BME280;13176;51.140;6.290;2022-08-11T10:16:24;101408.09;;;32.41;23.61
25232;BME280;13176;51.140;6.290;2022-08-11T10:18:54;101432.03;;;32.74;23.73
25232;BME280;13176;51.140;6.290;2022-08-11T10:21:28;101407.25;;;32.69;23.15
25232;BME280;13176;51.140;6.290;2022-08-11T10:23:59;101412.81;;;32.77;23.07
25232;BME280;13176;51.140;6.290;2022-08-11T10:26:46;101435.13;;;32.98;23.12
25232;BME280;13176;51.140;6.290;2022-08-11T10:29:29;101424.53;;;33.04;22.60
25232;BME280;13176;51.140;6.290;2022-08-11T10:32:24;101393.25;;;32.83;21.93
25232;BME280;13176;51.140;6.290;2022-08-11T10:35:26;101388.94;;;32.99;22.10
25232;BME280;13176;51.140;6.290;2022-08-11T10:37:53;101373.31;;;32.93;22.57
25232;BME280;13176;51.140;6.290;2022-08-11T10:40:37;101429.91;;;33.33;22.82
25232;BME280;13176;51.140;6.290;2022-08-11T10:43:06;101423.84;;;33.48;22.85
25232;BME280;13176;51.140;6.290;2022-08-11T10:45:40;101401.56;;;33.64;22.89
25232;BME280;13176;51.140;6.290;2022-08-11T10:48:34;101387.88;;;33.65;22.80
25232;BME280;13176;51.140;6.290;2022-08-11T10:51:01;101395.25;;;33.73;22.23
25232;BME280;13176;51.140;6.290;2022-08-11T10:54:04;101373.25;;;33.76;22.23
25232;BME280;13176;51.140;6.290;2022-08-11T10:56:49;101378.53;;;33.95;22.24
25232;BME280;13176;51.140;6.290;2022-08-11T10:59:37;101388.84;;;34.08;21.45
25232;BME280;13176;51.140;6.290;2022-08-11T11:02:04;101371.38;;;34.20;21.81
25232;BME280;13176;51.140;6.290;2022-08-11T11:04:57;101397.00;;;34.43;21.42
25232;BME280;13176;51.140;6.290;2022-08-11T11:07:37;101357.56;;;34.31;20.86
25232;BME280;13176;51.140;6.290;2022-08-11T11:10:09;101371.66;;;34.52;21.64
25232;BME280;13176;51.140;6.290;2022-08-11T11:12:45;101394.28;;;34.78;20.76
25232;BME280;13176;51.140;6.290;2022-08-11T11:15:33;101389.59;;;34.88;20.39
25232;BME280;13176;51.140;6.290;2022-08-11T11:18:26;101367.59;;;34.99;20.97
25232;BME280;13176;51.140;6.290;2022-08-11T11:20:58;101347.56;;;35.00;20.05
25232;BME280;13176;51.140;6.290;2022-08-11T11:23:39;101387.03;;;35.79;19.92
25232;BME280;13176;51.140;6.290;2022-08-11T11:26:22;101373.56;;;36.19;18.89
25232;BME280;13176;51.140;6.290;2022-08-11T11:32:26;101347.53;;;36.24;19.40
25232;BME280;13176;51.140;6.290;2022-08-11T11:37:44;101357.13;;;35.79;19.14
25232;BME280;13176;51.140;6.290;2022-08-11T11:40:30;101360.19;;;35.84;19.02
25232;BME280;13176;51.140;6.290;2022-08-11T11:42:58;101357.34;;;35.85;19.43
25232;BME280;13176;51.140;6.290;2022-08-11T11:45:25;101353.75;;;35.85;19.45
25232;BME280;13176;51.140;6.290;2022-08-11T11:47:54;101364.00;;;36.07;18.87
25232;BME280;13176;51.140;6.290;2022-08-11T11:50:30;101338.19;;;36.03;18.88
25232;BME280;13176;51.140;6.290;2022-08-11T11:52:59;101371.84;;;36.26;18.77
25232;BME280;13176;51.140;6.290;2022-08-11T11:55:27;101369.47;;;36.31;19.02
25232;BME280;13176;51.140;6.290;2022-08-11T11:57:56;101367.44;;;36.33;18.54
25232;BME280;13176;51.140;6.290;2022-08-11T12:00:45;101334.09;;;36.15;19.43
25232;BME280;13176;51.140;6.290;2022-08-11T12:03:32;101332.00;;;35.93;18.99
25232;BME280;13176;51.140;6.290;2022-08-11T12:05:59;101348.56;;;36.07;19.53
25232;BME280;13176;51.140;6.290;2022-08-11T12:08:27;101314.00;;;36.00;19.52
25232;BME280;13176;51.140;6.290;2022-08-11T12:10:57;101338.19;;;36.27;18.70
25232;BME280;13176;51.140;6.290;2022-08-11T12:13:47;101339.53;;;36.46;18.99
25232;BME280;13176;51.140;6.290;2022-08-11T12:16:17;101332.56;;;36.44;19.55
25232;BME280;13176;51.140;6.290;2022-08-11T12:19:04;101327.84;;;36.54;19.26
25232;BME280;13176;51.140;6.290;2022-08-11T12:21:33;101310.78;;;36.44;19.15
25232;BME280;13176;51.140;6.290;2022-08-11T12:24:02;101319.13;;;36.58;19.05
25232;BME280;13176;51.140;6.290;2022-08-11T12:26:47;101273.22;;;36.32;18.47
25232;BME280;13176;51.140;6.290;2022-08-11T12:29:34;101294.97;;;36.47;19.05
25232;BME280;13176;51.140;6.290;2022-08-11T12:32:07;101301.91;;;36.74;19.42
25232;BME280;13176;51.140;6.290;2022-08-11T12:34:33;101303.09;;;36.79;19.03
25232;BME280;13176;51.140;6.290;2022-08-11T12:37:02;101289.47;;;36.95;18.52
25232;BME280;13176;51.140;6.290;2022-08-11T12:39:35;101271.59;;;36.85;18.50
25232;BME280;13176;51.140;6.290;2022-08-11T12:42:42;101276.66;;;37.04;18.25
25232;BME280;13176;51.140;6.290;2022-08-11T12:45:36;101285.00;;;37.10;18.29
25232;BME280;13176;51.140;6.290;2022-08-11T12:48:08;101272.91;;;37.05;18.33
25232;BME280;13176;51.140;6.290;2022-08-11T12:51:26;101274.22;;;37.17;17.87
25232;BME280;13176;51.140;6.290;2022-08-11T12:57:14;101249.22;;;37.13;18.54
25232;BME280;13176;51.140;6.290;2022-08-11T13:00:04;101237.13;;;37.08;18.45
25232;BME280;13176;51.140;6.290;2022-08-11T13:02:51;101254.91;;;37.26;18.34
25232;BME280;13176;51.140;6.290;2022-08-11T13:05:37;101248.03;;;37.38;19.26
25232;BME280;13176;51.140;6.290;2022-08-11T13:08:11;101259.28;;;37.43;18.61
25232;BME280;13176;51.140;6.290;2022-08-11T13:10:39;101276.91;;;37.55;18.85
25232;BME280;13176;51.140;6.290;2022-08-11T13:13:25;101247.72;;;37.41;18.79
25232;BME280;13176;51.140;6.290;2022-08-11T13:16:12;101228.44;;;37.43;18.79
25232;BME280;13176;51.140;6.290;2022-08-11T13:18:41;101254.16;;;37.48;18.83
25232;BME280;13176;51.140;6.290;2022-08-11T13:21:12;101265.97;;;37.63;18.91
25232;BME280;13176;51.140;6.290;2022-08-11T13:23:48;101225.03;;;37.41;18.71
25232;BME280;13176;51.140;6.290;2022-08-11T13:26:28;101211.31;;;37.26;18.28
25232;BME280;13176;51.140;6.290;2022-08-11T13:29:16;101219.38;;;37.50;18.59
25232;BME280;13176;51.140;6.290;2022-08-11T13:31:44;101220.47;;;37.64;18.14
25232;BME280;13176;51.140;6.290;2022-08-11T13:34:11;101246.88;;;37.63;18.15
25232;BME280;13176;51.140;6.290;2022-08-11T13:36:39;101241.78;;;37.60;18.16
25232;BME280;13176;51.140;6.290;2022-08-11T13:39:06;101225.59;;;37.28;18.23
25232;BME280;13176;51.140;6.290;2022-08-11T13:41:33;101243.72;;;37.52;18.66
25232;BME280;13176;51.140;6.290;2022-08-11T13:44:07;101246.06;;;37.85;18.78
25232;BME280;13176;51.140;6.290;2022-08-11T13:46:35;101219.34;;;37.72;18.21
25232;BME280;13176;51.140;6.290;2022-08-11T13:49:03;101225.28;;;37.84;18.44
25232;BME280;13176;51.140;6.290;2022-08-11T13:51:31;101229.81;;;37.91;18.07
25232;BME280;13176;51.140;6.290;2022-08-11T13:54:05;101175.66;;;37.80;18.35
25232;BME280;13176;51.140;6.290;2022-08-11T13:56:34;101219.84;;;37.76;17.18
25232;BME280;13176;51.140;6.290;2022-08-11T13:59:02;101202.28;;;37.56;17.93
25232;BME280;13176;51.140;6.290;2022-08-11T14:01:32;101200.00;;;37.45;18.48
25232;BME280;13176;51.140;6.290;2022-08-11T14:04:30;101225.78;;;37.79;18.25
25232;BME280;13176;51.140;6.290;2022-08-11T14:07:03;101199.97;;;37.90;18.05
25232;BME280;13176;51.140;6.290;2022-08-11T14:09:34;101196.66;;;38.17;17.85
25232;BME280;13176;51.140;6.290;2022-08-11T14:12:08;101149.16;;;37.89;17.54
25232;BME280;13176;51.140;6.290;2022-08-11T14:15:01;101181.69;;;38.13;18.04
25232;BME280;13176;51.140;6.290;2022-08-11T14:17:35;101203.91;;;38.24;17.81
25232;BME280;13176;51.140;6.290;2022-08-11T14:20:16;101186.34;;;38.27;17.84
25232;BME280;13176;51.140;6.290;2022-08-11T14:23:04;101198.34;;;38.18;18.03
25232;BME280;13176;51.140;6.290;2022-08-11T14:25:31;101152.34;;;37.78;17.67
25232;BME280;13176;51.140;6.290;2022-08-11T14:28:18;101206.53;;;38.18;18.16
25232;BME280;13176;51.140;6.290;2022-08-11T14:31:00;101176.28;;;37.90;17.96
25232;BME280;13176;51.140;6.290;2022-08-11T14:33:29;101199.03;;;38.20;18.15
25232;BME280;13176;51.140;6.290;2022-08-11T14:36:19;101170.25;;;37.95;17.72
25232;BME280;13176;51.140;6.290;2022-08-11T14:38:47;101176.75;;;37.94;17.83
25232;BME280;13176;51.140;6.290;2022-08-11T14:41:17;101125.81;;;37.72;18.31
25232;BME280;13176;51.140;6.290;2022-08-11T14:44:24;101151.75;;;38.19;17.96
25232;BME280;13176;51.140;6.290;2022-08-11T14:47:11;101188.81;;;38.51;17.48
25232;BME280;13176;51.140;6.290;2022-08-11T14:49:53;101176.47;;;38.55;17.52
25232;BME280;13176;51.140;6.290;2022-08-11T14:52:36;101188.44;;;38.54;17.08
25232;BME280;13176;51.140;6.290;2022-08-11T14:55:03;101173.47;;;38.35;17.54
25232;BME280;13176;51.140;6.290;2022-08-11T14:57:49;101142.91;;;38.17;17.66
25232;BME280;13176;51.140;6.290;2022-08-11T15:00:22;101132.69;;;38.34;18.12
25232;BME280;13176;51.140;6.290;2022-08-11T15:02:49;101124.22;;;38.29;17.46
25232;BME280;13176;51.140;6.290;2022-08-11T15:05:37;101149.91;;;38.49;17.32
25232;BME280;13176;51.140;6.290;2022-08-11T15:08:08;101136.44;;;38.33;17.36
25232;BME280;13176;51.140;6.290;2022-08-11T15:10:35;101113.84;;;38.10;17.78
25232;BME280;13176;51.140;6.290;2022-08-11T15:13:02;101126.66;;;38.24;18.53
25232;BME280;13176;51.140;6.290;2022-08-11T15:15:30;101158.25;;;38.62;18.19
25232;BME280;13176;51.140;6.290;2022-08-11T15:18:19;101137.34;;;38.69;17.32
25232;BME280;13176;51.140;6.290;2022-08-11T15:20:46;101089.19;;;38.47;17.34
25232;BME280;13176;51.140;6.290;2022-08-11T15:23:32;101126.94;;;38.43;16.39
25232;BME280;13176;51.140;6.290;2022-08-11T15:26:37;101144.53;;;38.70;17.75
25232;BME280;13176;51.140;6.290;2022-08-11T15:29:24;101070.19;;;38.10;17.58
25232;BME280;13176;51.140;6.290;2022-08-11T15:32:12;101102.94;;;38.39;17.62
25232;BME280;13176;51.140;6.290;2022-08-11T15:35:01;101130.19;;;38.68;17.34
25232;BME280;13176;51.140;6.290;2022-08-11T15:38:00;101079.66;;;38.57;17.76
25232;BME280;13176;51.140;6.290;2022-08-11T15:40:30;101130.69;;;39.06;17.00
25232;BME280;13176;51.140;6.290;2022-08-11T15:43:45;101102.16;;;39.09;17.08
25232;BME280;13176;51.140;6.290;2022-08-11T15:46:47;101115.25;;;39.13;17.02
25232;BME280;13176;51.140;6.290;2022-08-11T15:49:30;101104.41;;;39.05;17.73
25232;BME280;13176;51.140;6.290;2022-08-11T15:52:29;101081.50;;;39.06;17.54
25232;BME280;13176;51.140;6.290;2022-08-11T15:54:58;101095.44;;;39.11;16.83
25232;BME280;13176;51.140;6.290;2022-08-11T15:57:28;101035.72;;;38.88;16.72
25232;BME280;13176;51.140;6.290;2022-08-11T16:00:14;101110.31;;;39.23;16.61
25232;BME280;13176;51.140;6.290;2022-08-11T16:03:02;101114.19;;;39.35;16.60
25232;BME280;13176;51.140;6.290;2022-08-11T16:06:11;101103.41;;;39.27;16.08
25232;BME280;13176;51.140;6.290;2022-08-11T16:08:39;101074.59;;;39.10;16.42
25232;BME280;13176;51.140;6.290;2022-08-11T16:11:10;101095.44;;;39.11;16.35
25232;BME280;13176;51.140;6.290;2022-08-11T16:13:38;101100.03;;;39.25;16.62
25232;BME280;13176;51.140;6.290;2022-08-11T16:16:07;101089.97;;;39.11;16.88
25232;BME280;13176;51.140;6.290;2022-08-11T16:18:49;101098.06;;;39.19;17.13
25232;BME280;13176;51.140;6.290;2022-08-11T16:21:21;101046.91;;;38.93;16.71
25232;BME280;13176;51.140;6.290;2022-08-11T16:24:05;101061.22;;;38.95;16.94
25232;BME280;13176;51.140;6.290;2022-08-11T16:26:32;101078.88;;;38.98;17.08
25232;BME280;13176;51.140;6.290;2022-08-11T16:29:22;101057.75;;;38.86;16.91
25232;BME280;13176;51.140;6.290;2022-08-11T16:31:52;101091.94;;;38.97;17.00
25232;BME280;13176;51.140;6.290;2022-08-11T16:34:39;101045.25;;;38.63;17.01
25232;BME280;13176;51.140;6.290;2022-08-11T16:37:26;101062.06;;;38.60;17.13
25232;BME280;13176;51.140;6.290;2022-08-11T16:40:14;101076.75;;;38.59;17.06